createdAt,value
2023-11-24T00:02:59.035Z,5.27
2023-11-24T00:06:02.012Z,4.60
2023-11-24T00:09:07.143Z,4.07
2023-11-24T00:12:11.781Z,4.27
2023-11-24T00:15:15.009Z,4.63
2023-11-24T00:18:18.020Z,4.30
2023-11-24T00:21:21.309Z,4.13
2023-11-24T00:24:24.617Z,4.43
2023-11-24T00:27:29.134Z,4.70
2023-11-24T00:30:35.158Z,4.40
2023-11-24T00:33:38.740Z,4.10
2023-11-24T00:36:42.787Z,4.13
2023-11-24T00:39:46.065Z,4.63
2023-11-24T00:42:50.561Z,5.00
2023-11-24T00:45:54.662Z,4.73
2023-11-24T00:48:58.720Z,4.30
2023-11-24T00:52:01.856Z,4.83
2023-11-24T00:55:06.272Z,4.63
2023-11-24T00:58:11.951Z,4.53
2023-11-24T01:01:14.962Z,4.67
2023-11-24T01:04:18.346Z,4.33
2023-11-24T01:07:21.348Z,5.00
2023-11-24T01:10:24.577Z,4.50
2023-11-24T01:13:32.535Z,5.57
2023-11-24T01:16:35.620Z,5.03
2023-11-24T01:19:38.799Z,5.47
2023-11-24T01:22:42.260Z,5.03
2023-11-24T01:25:45.289Z,5.63
2023-11-24T01:28:49.816Z,5.30
2023-11-24T01:31:53.049Z,4.97
2023-11-24T01:34:56.185Z,4.87
2023-11-24T01:38:00.722Z,4.70
2023-11-24T01:41:03.941Z,4.50
2023-11-24T01:44:08.594Z,5.20
2023-11-24T01:47:11.760Z,4.53
2023-11-24T01:50:16.272Z,4.40
2023-11-24T01:53:19.328Z,3.90
2023-11-24T01:56:23.004Z,4.07
2023-11-24T01:59:27.994Z,4.23
2023-11-24T02:02:31.900Z,3.60
2023-11-24T02:05:38.079Z,3.30
2023-11-24T02:08:41.440Z,3.07
2023-11-24T02:11:44.995Z,3.13
2023-11-24T02:14:49.506Z,3.20
2023-11-24T02:17:53.286Z,3.57
2023-11-24T02:20:56.433Z,3.03
2023-11-24T02:24:01.375Z,3.30
2023-11-24T02:27:06.304Z,3.20
2023-11-24T02:30:10.755Z,2.80
2023-11-24T02:33:14.739Z,3.30
2023-11-24T02:36:22.426Z,2.93
2023-11-24T02:39:27.053Z,3.37
2023-11-24T02:42:32.088Z,3.53
2023-11-24T02:45:35.230Z,3.30
2023-11-24T02:48:38.437Z,3.33
2023-11-24T02:51:41.665Z,3.83
2023-11-24T02:54:46.321Z,4.03
2023-11-24T02:57:50.371Z,3.40
2023-11-24T03:00:54.680Z,3.90
2023-11-24T03:03:57.899Z,4.50
2023-11-24T03:07:01.353Z,4.10
2023-11-24T03:10:06.771Z,3.87
2023-11-24T03:13:10.119Z,4.17
2023-11-24T03:16:13.245Z,4.20
2023-11-24T03:19:16.482Z,4.13
2023-11-24T03:22:19.787Z,5.33
2023-11-24T03:25:24.237Z,5.57
2023-11-24T03:28:27.561Z,4.30
2023-11-24T03:31:31.100Z,4.67
2023-11-24T03:34:34.783Z,4.73
2023-11-24T03:37:38.286Z,4.83
2023-11-24T03:40:43.656Z,4.50
2023-11-24T03:43:46.776Z,4.87
2023-11-24T03:46:50.020Z,5.00
2023-11-24T03:49:53.009Z,5.27
2023-11-24T03:52:56.617Z,4.40
2023-11-24T03:56:02.869Z,4.40
2023-11-24T03:59:06.704Z,5.50
2023-11-24T04:02:09.829Z,4.60
2023-11-24T04:05:14.540Z,4.70
2023-11-24T04:08:17.541Z,4.53
2023-11-24T04:11:22.037Z,4.43
2023-11-24T04:14:25.038Z,4.83
2023-11-24T04:17:28.859Z,5.17
2023-11-24T04:20:31.956Z,4.17
2023-11-24T04:23:37.274Z,5.50
2023-11-24T04:26:41.747Z,4.63
2023-11-24T04:29:44.730Z,3.90
2023-11-24T04:32:47.831Z,3.93
2023-11-24T04:35:56.437Z,3.60
2023-11-24T04:38:59.566Z,4.47
2023-11-24T04:42:04.379Z,3.57
2023-11-24T04:45:12.557Z,3.60
2023-11-24T04:48:16.516Z,4.23
2023-11-24T04:51:19.620Z,4.00
2023-11-24T04:54:23.109Z,3.40
2023-11-24T04:57:27.761Z,4.17
2023-11-24T05:00:31.041Z,3.70
2023-11-24T05:03:34.515Z,3.63
2023-11-24T05:06:37.723Z,3.70
2023-11-24T05:09:41.738Z,3.80
2023-11-24T05:12:46.763Z,3.37
2023-11-24T05:15:51.362Z,3.43
2023-11-24T05:18:54.875Z,3.83
2023-11-24T05:21:57.981Z,3.73
2023-11-24T05:25:01.087Z,4.13
2023-11-24T05:28:07.349Z,3.87
2023-11-24T05:31:10.725Z,4.37
2023-11-24T05:34:14.404Z,3.97
2023-11-24T05:37:17.500Z,3.77
2023-11-24T05:40:20.595Z,4.37
2023-11-24T05:43:25.411Z,3.70
2023-11-24T05:46:29.480Z,4.33
2023-11-24T05:49:33.876Z,3.80
2023-11-24T05:52:37.230Z,3.67
2023-11-24T05:55:40.339Z,3.90
2023-11-24T05:58:45.236Z,3.73
2023-11-24T06:01:49.103Z,3.83
2023-11-24T06:04:52.753Z,3.60
2023-11-24T06:07:57.383Z,4.10
2023-11-24T06:11:00.978Z,3.97
2023-11-24T06:14:06.075Z,3.90
2023-11-24T06:17:09.843Z,3.97
2023-11-24T06:20:13.383Z,4.20
2023-11-24T06:23:16.423Z,3.53
2023-11-24T06:26:19.505Z,4.27
2023-11-24T06:29:25.578Z,3.93
2023-11-24T06:32:28.816Z,4.27
2023-11-24T06:35:32.010Z,3.80
2023-11-24T06:38:35.037Z,3.33
2023-11-24T06:41:38.198Z,3.80
2023-11-24T06:44:42.733Z,4.10
2023-11-24T06:47:45.896Z,4.20
2023-11-24T06:50:48.955Z,4.50
2023-11-24T06:53:52.019Z,4.00
2023-11-24T06:56:55.826Z,3.93
2023-11-24T07:00:00.472Z,4.60
2023-11-24T07:03:03.867Z,4.23
2023-11-24T07:06:08.116Z,4.20
2023-11-24T07:09:13.132Z,4.33
2023-11-24T07:12:19.384Z,4.47
2023-11-24T07:15:24.014Z,5.10
2023-11-24T07:18:27.340Z,4.10
2023-11-24T07:21:30.393Z,3.70
2023-11-24T07:24:33.597Z,4.17
2023-11-24T07:27:36.821Z,4.70
2023-11-24T07:30:43.743Z,3.90
2023-11-24T07:33:49.957Z,4.47
2023-11-24T07:36:54.692Z,3.90
2023-11-24T07:39:57.974Z,4.40
2023-11-24T07:43:01.175Z,4.20
2023-11-24T07:46:08.322Z,3.90
2023-11-24T07:49:11.486Z,4.13
2023-11-24T07:52:15.038Z,3.60
2023-11-24T07:55:18.327Z,4.07
2023-11-24T07:58:22.036Z,4.40
2023-11-24T08:01:26.594Z,4.73
2023-11-24T08:04:30.134Z,4.27
2023-11-24T08:07:33.350Z,4.30
2023-11-24T08:10:36.384Z,4.00
2023-11-24T08:13:39.408Z,4.97
2023-11-24T08:16:43.984Z,4.20
2023-11-24T08:19:47.641Z,5.40
2023-11-24T08:22:51.344Z,4.47
2023-11-24T08:25:54.621Z,3.87
2023-11-24T08:28:57.677Z,3.87
2023-11-24T08:32:02.092Z,4.13
2023-11-24T08:35:06.359Z,4.43
2023-11-24T08:38:09.816Z,4.43
2023-11-24T08:41:23.761Z,3.70
2023-11-24T08:44:34.840Z,3.70
2023-11-24T08:47:40.432Z,3.90
2023-11-24T08:50:43.568Z,3.90
2023-11-24T08:53:46.918Z,4.00
2023-11-24T08:56:51.848Z,4.27
2023-11-24T08:59:55.673Z,3.97
2023-11-24T09:03:03.140Z,4.00
2023-11-24T09:06:07.367Z,3.87
2023-11-24T09:09:13.520Z,3.70
2023-11-24T09:12:16.740Z,4.53
2023-11-24T09:15:20.334Z,4.47
2023-11-24T09:18:25.007Z,4.10
2023-11-24T09:21:28.424Z,3.93
2023-11-24T09:24:31.561Z,3.70
2023-11-24T09:27:35.633Z,4.37
2023-11-24T09:30:39.795Z,4.57
2023-11-24T09:33:44.450Z,4.43
2023-11-24T09:36:47.793Z,3.37
2023-11-24T09:39:51.134Z,4.00
2023-11-24T09:42:54.419Z,3.87
2023-11-24T09:45:57.663Z,3.47
2023-11-24T09:49:04.802Z,3.63
2023-11-24T09:52:08.374Z,3.47
2023-11-24T09:55:11.461Z,3.90
2023-11-24T09:58:14.923Z,3.77
2023-11-24T10:01:19.926Z,4.37
2023-11-24T10:04:24.864Z,3.80
2023-11-24T10:07:27.971Z,3.93
2023-11-24T10:10:31.549Z,3.37
2023-11-24T10:13:34.693Z,4.00
2023-11-24T10:16:42.845Z,3.77
2023-11-24T10:19:48.469Z,4.03
2023-11-24T10:22:52.480Z,4.07
2023-11-24T10:25:55.808Z,3.70
2023-11-24T10:28:59.493Z,4.47
2023-11-24T10:32:04.853Z,4.00
2023-11-24T10:35:09.777Z,4.10
2023-11-24T10:38:15.825Z,3.53
2023-11-24T10:41:24.100Z,4.40
2023-11-24T10:44:30.618Z,3.40
2023-11-24T10:47:40.115Z,3.40
2023-11-24T10:50:51.528Z,3.70
2023-11-24T10:53:57.978Z,4.27
2023-11-24T10:57:03.775Z,3.53
2023-11-24T11:00:09.364Z,3.90
2023-11-24T11:03:16.162Z,3.53
2023-11-24T11:06:30.446Z,3.63
2023-11-24T11:09:48.717Z,3.60
2023-11-24T11:12:52.866Z,3.90
2023-11-24T11:15:56.777Z,3.33
2023-11-24T11:19:03.712Z,4.07
2023-11-24T11:22:08.776Z,3.53
2023-11-24T11:25:39.681Z,3.20
2023-11-24T11:28:44.988Z,4.17
2023-11-24T11:31:51.576Z,3.57
2023-11-24T11:34:56.174Z,3.30
2023-11-24T11:38:01.696Z,4.00
2023-11-24T11:41:07.029Z,3.83
2023-11-24T11:44:25.937Z,3.90
2023-11-24T11:47:32.443Z,4.10
2023-11-24T11:50:37.946Z,3.77
2023-11-24T11:53:45.493Z,3.57
2023-11-24T11:56:48.540Z,3.27
2023-11-24T11:59:52.004Z,3.97
2023-11-24T12:02:56.730Z,3.43
2023-11-24T12:06:06.133Z,3.80
2023-11-24T12:09:13.620Z,3.90
2023-11-24T12:12:16.748Z,3.70
2023-11-24T12:15:20.447Z,4.17
2023-11-24T12:18:23.696Z,3.70
2023-11-24T12:21:26.753Z,3.63
2023-11-24T12:24:31.979Z,3.60
2023-11-24T12:27:36.943Z,4.00
2023-11-24T12:30:43.098Z,4.00
2023-11-24T12:33:51.387Z,3.70
2023-11-24T12:36:55.984Z,4.17
2023-11-24T12:40:01.572Z,4.10
2023-11-24T12:43:04.787Z,4.17
2023-11-24T12:46:09.289Z,3.80
2023-11-24T12:49:13.141Z,4.17
2023-11-24T12:52:16.694Z,4.17
2023-11-24T12:55:22.914Z,3.53
2023-11-24T12:58:26.210Z,3.73
2023-11-24T13:01:29.806Z,3.90
2023-11-24T13:04:33.088Z,3.57
2023-11-24T13:07:38.038Z,3.80
2023-11-24T13:10:44.287Z,3.80
2023-11-24T13:13:47.577Z,4.23
2023-11-24T13:16:53.165Z,3.53
2023-11-24T13:19:56.373Z,3.90
2023-11-24T13:22:59.356Z,3.87
2023-11-24T13:26:05.043Z,3.73
2023-11-24T13:29:08.361Z,3.30
2023-11-24T13:32:12.330Z,3.43
2023-11-24T13:35:17.225Z,3.43
2023-11-24T13:38:20.727Z,3.10
2023-11-24T13:41:26.727Z,2.90
2023-11-24T13:44:30.964Z,2.90
2023-11-24T13:47:36.378Z,3.17
2023-11-24T13:50:40.882Z,3.27
2023-11-24T13:53:46.131Z,3.30
2023-11-24T13:56:52.421Z,3.37
2023-11-24T13:59:55.609Z,3.47
2023-11-24T14:02:58.853Z,3.00
2023-11-24T14:06:01.968Z,3.30
2023-11-24T14:09:10.964Z,3.40
2023-11-24T14:12:15.936Z,3.27
2023-11-24T14:15:18.972Z,3.50
2023-11-24T14:18:22.774Z,3.20
2023-11-24T14:21:25.913Z,3.33
2023-11-24T14:24:29.088Z,3.60
2023-11-24T14:27:33.508Z,3.30
2023-11-24T14:30:39.509Z,3.23
2023-11-24T14:33:43.034Z,3.53
2023-11-24T14:36:46.234Z,3.77
2023-11-24T14:39:49.906Z,3.57
2023-11-24T14:42:54.353Z,4.10
2023-11-24T14:45:58.674Z,3.53
2023-11-24T14:49:01.816Z,3.40
2023-11-24T14:52:06.213Z,3.20
2023-11-24T14:55:13.046Z,3.37
2023-11-24T14:58:20.121Z,3.20
2023-11-24T15:01:24.706Z,3.20
2023-11-24T15:04:31.971Z,3.20
2023-11-24T15:07:36.863Z,3.37
2023-11-24T15:10:43.829Z,2.93
2023-11-24T15:13:48.784Z,3.20
2023-11-24T15:16:58.563Z,2.93
2023-11-24T15:20:01.840Z,3.00
2023-11-24T15:23:04.843Z,3.47
2023-11-24T15:26:08.399Z,3.10
2023-11-24T15:29:16.703Z,2.90
2023-11-24T15:32:22.334Z,3.23
2023-11-24T15:35:26.373Z,3.17
2023-11-24T15:38:29.447Z,3.07
2023-11-24T15:41:40.692Z,3.43
2023-11-24T15:44:47.133Z,3.03
2023-11-24T15:48:02.831Z,3.20
2023-11-24T15:51:10.610Z,3.27
2023-11-24T15:54:14.201Z,3.10
2023-11-24T15:57:17.283Z,3.40
2023-11-24T16:00:31.633Z,3.50
2023-11-24T16:03:35.249Z,3.20
2023-11-24T16:06:40.881Z,3.57
2023-11-24T16:09:44.040Z,3.10
2023-11-24T16:12:49.730Z,3.70
2023-11-24T16:15:54.402Z,3.60
2023-11-24T16:18:57.757Z,3.40
2023-11-24T16:22:01.116Z,3.43
2023-11-24T16:25:04.337Z,3.20
2023-11-24T16:28:07.571Z,3.40
2023-11-24T16:31:13.512Z,3.40
2023-11-24T16:34:17.533Z,3.67
2023-11-24T16:37:20.714Z,3.50
2023-11-24T16:40:24.018Z,3.27
2023-11-24T16:43:27.050Z,3.20
2023-11-24T16:46:31.783Z,3.27
2023-11-24T16:49:35.114Z,3.83
2023-11-24T16:52:43.983Z,3.40
2023-11-24T16:55:48.555Z,3.30
2023-11-24T16:58:51.600Z,3.50
2023-11-24T17:01:57.165Z,4.13
2023-11-24T17:05:00.933Z,4.80
2023-11-24T17:08:05.310Z,3.67
2023-11-24T17:11:12.072Z,3.40
2023-11-24T17:14:16.550Z,3.97
2023-11-24T17:17:27.241Z,3.63
2023-11-24T17:20:30.599Z,3.50
2023-11-24T17:23:34.283Z,3.53
2023-11-24T17:26:37.504Z,3.77
2023-11-24T17:29:40.602Z,3.83
2023-11-24T17:32:45.087Z,3.40
2023-11-24T17:35:48.802Z,3.53
2023-11-24T17:38:52.259Z,3.50
2023-11-24T17:41:55.291Z,3.77
2023-11-24T17:44:59.916Z,4.37
2023-11-24T17:48:09.408Z,4.00
2023-11-24T17:51:13.634Z,3.20
2023-11-24T17:54:18.821Z,3.93
2023-11-24T17:57:23.530Z,3.37
2023-11-24T18:00:30.107Z,3.70
2023-11-24T18:03:34.700Z,4.40
2023-11-24T18:06:38.134Z,3.50
2023-11-24T18:09:41.152Z,3.80
2023-11-24T18:12:44.664Z,3.83
2023-11-24T18:15:47.801Z,3.30
2023-11-24T18:18:58.149Z,3.40
2023-11-24T18:22:01.445Z,3.40
2023-11-24T18:25:07.178Z,3.67
2023-11-24T18:28:12.489Z,4.10
2023-11-24T18:31:15.760Z,3.20
2023-11-24T18:34:26.515Z,3.70
2023-11-24T18:37:30.061Z,3.60
2023-11-24T18:40:33.301Z,3.60
2023-11-24T18:43:40.292Z,3.40
2023-11-24T18:46:44.791Z,3.57
2023-11-24T18:49:49.680Z,4.10
2023-11-24T18:52:52.830Z,3.90
2023-11-24T18:55:55.851Z,3.30
2023-11-24T18:58:59.109Z,4.07
2023-11-24T19:02:02.220Z,4.10
2023-11-24T19:05:07.772Z,3.80
2023-11-24T19:08:10.889Z,3.47
2023-11-24T19:11:14.093Z,3.10
2023-11-24T19:14:17.223Z,3.30
2023-11-24T19:17:20.245Z,3.50
2023-11-24T19:20:24.729Z,3.40
2023-11-24T19:23:27.754Z,3.10
2023-11-24T19:26:30.949Z,3.50
2023-11-24T19:29:33.980Z,3.87
2023-11-24T19:32:37.123Z,3.47
2023-11-24T19:35:43.234Z,3.30
2023-11-24T19:38:46.279Z,3.13
2023-11-24T19:41:49.278Z,3.50
2023-11-24T19:44:52.305Z,3.73
2023-11-24T19:47:58.227Z,3.30
2023-11-24T19:51:02.696Z,3.27
2023-11-24T19:54:06.236Z,3.03
2023-11-24T19:57:09.936Z,3.30
2023-11-24T20:00:14.231Z,3.23
2023-11-24T20:03:17.728Z,3.40
2023-11-24T20:06:22.507Z,4.20
2023-11-24T20:09:26.042Z,3.43
2023-11-24T20:12:30.418Z,3.53
2023-11-24T20:15:33.523Z,3.83
2023-11-24T20:18:38.904Z,4.23
2023-11-24T20:21:44.035Z,4.10
2023-11-24T20:24:47.352Z,3.70
2023-11-24T20:27:50.614Z,3.90
2023-11-24T20:30:53.869Z,3.77
2023-11-24T20:33:57.264Z,4.17
2023-11-24T20:37:02.223Z,3.10
2023-11-24T20:40:07.465Z,3.00
2023-11-24T20:43:11.397Z,2.90
2023-11-24T20:46:14.713Z,3.23
2023-11-24T20:49:19.024Z,3.20
2023-11-24T20:52:23.449Z,2.97
2023-11-24T20:55:27.766Z,3.13
2023-11-24T20:58:31.107Z,2.77
2023-11-24T21:01:34.813Z,2.87
2023-11-24T21:04:37.974Z,3.23
2023-11-24T21:07:42.432Z,3.20
2023-11-24T21:10:46.303Z,3.30
2023-11-24T21:13:49.293Z,3.60
2023-11-24T21:16:52.306Z,4.07
2023-11-24T21:19:56.980Z,3.90
2023-11-24T21:23:01.761Z,4.20
2023-11-24T21:26:05.253Z,4.00
2023-11-24T21:29:08.521Z,4.70
2023-11-24T21:32:11.594Z,4.30
2023-11-24T21:35:14.715Z,4.50
2023-11-24T21:38:22.057Z,5.00
2023-11-24T21:41:25.862Z,5.50
2023-11-24T21:44:28.986Z,5.10
2023-11-24T21:47:32.592Z,5.60
2023-11-24T21:50:36.015Z,4.80
2023-11-24T21:53:41.269Z,4.50
2023-11-24T21:56:44.404Z,4.23
2023-11-24T21:59:50.994Z,3.63
2023-11-24T22:02:54.704Z,4.00
2023-11-24T22:05:58.327Z,4.13
2023-11-24T22:09:05.267Z,4.07
2023-11-24T22:12:09.481Z,4.73
2023-11-24T22:15:13.143Z,4.70
2023-11-24T22:18:16.199Z,4.70
2023-11-24T22:21:19.925Z,5.10
2023-11-24T22:24:24.495Z,4.60
2023-11-24T22:27:27.473Z,4.83
2023-11-24T22:30:32.458Z,4.63
2023-11-24T22:33:35.625Z,4.93
2023-11-24T22:36:38.725Z,4.77
2023-11-24T22:39:43.108Z,5.00
2023-11-24T22:42:46.497Z,4.90
2023-11-24T22:45:49.749Z,4.40
2023-11-24T22:48:53.408Z,4.50
2023-11-24T22:51:56.540Z,4.07
2023-11-24T22:55:01.111Z,3.90
2023-11-24T22:58:06.260Z,4.37
2023-11-24T23:01:09.488Z,3.67
2023-11-24T23:04:12.844Z,3.47
2023-11-24T23:07:16.681Z,3.90
2023-11-24T23:10:22.656Z,3.40
2023-11-24T23:13:27.284Z,3.87
2023-11-24T23:16:34.027Z,3.70
2023-11-24T23:19:37.212Z,3.53
2023-11-24T23:22:40.371Z,3.83
2023-11-24T23:25:45.064Z,3.90
2023-11-24T23:28:49.327Z,3.43
2023-11-24T23:31:53.826Z,3.77
2023-11-24T23:34:57.045Z,3.90
2023-11-24T23:38:00.107Z,3.80
2023-11-24T23:41:04.724Z,3.60
2023-11-24T23:44:09.615Z,3.43
2023-11-24T23:47:12.857Z,3.47
2023-11-24T23:50:16.122Z,3.80
2023-11-24T23:53:22.827Z,3.50
2023-11-24T23:56:27.216Z,3.60
2023-11-24T23:59:30.296Z,3.60
